Airfield :
LOGIN :

Register | Disclaimer

   EN    FR    IT 

 










Legend :    VFR   Marginal VFR   IFR   Intensive IFR   Very Intensive IFR
Visi :
Ceiling :
>= 8 km
>= 3000ft
5 to 8 km
1000 to 3000 ft
1500m to 5 km
500 to 1000 ft
800 to 1500m
200 to 500 ft
< 800m
< 200 ft
Symbols :   Thunderstorms  Fog  Heavy snow  Heavy precipitations  Wind > 20 kt
SIGMETs :     Misc.  Thunderstorms  Icing  Turbulence  Mountain Waves  Volcanic Ashes






- Airport Elevation : 1299 ft


EDTY - Adolf Würth

CURRENT METAR :
  • 091950Z AUTO 27009KT 9999 // BKN009/// BKN017/// OVC022/// 05/04 Q1010 RERA

EXPIRED METARs :
  • 091920Z AUTO 27007KT 9999 // SCT010/// BKN012/// OVC033/// 05/04 Q1009 RERA
  • 091850Z 27009KT 9999 -RA SCT014 OVC030 05/04 Q1008 RERA
  • 091820Z 28010KT 9999 FEW010 SCT012 OVC025 05/04 Q1008 RERA
  • 091750Z 27009KT 9999 -RA FEW007 BKN011 OVC018 05/04 Q1007 RERA
  • 091720Z 26008KT 230V290 8000 RA OVC010 05/04 Q1006

TAF TAF EDTY
Valid from the 09 at 18:00 until the 10 at 03:00 UTC


091700Z 0918/1003 27008KT 9999 SCT008 BKN020
TEMPO 0918/0924 4000 SHRA BKN006 BKN012TCU
PROB30
TEMPO 0922/1003 2000 -SHSNRA BKN006TCU



MET'MAP, your aeronautical weather chart ! - Copyright ORBIFLY December 2007 - Disclaimer

ORBIFLY MET'MAP TEAM :

Programming & Development : Alexandra Zaïnal
Concept & original design : Baudouin d'Aumeries
Assistance for programming : Marc-Olivier Méhu
Technical & hardware support : Manuel Goepfert

Contact : metmap@orbifly.com




SOURCES & CREDITS :

   NOAA